Главная страница
METAR-TAF:

METAR-TAF

Аэропорты :

Ljungbyhed, Швеция

широта: 56-04N, долгота: 013-12E, высота над уровнем моря: 43 м

Текущие метеонаблюдения

Эта сводка был подготовлена 59 минут назад, в 15:50 UTC
Ветер 13 Узел от западный
Температура 16°C
Влажность 100%
Давление 1005 hPa
Видимость 10 км и более

METAR: ESTL 221550Z AUTO 28013KT 9999 BKN002/// OVC005/// 16/16 Q1005 REDZ

Время: 18:49 (16:49 UTC)


TAF: отсутствует

Метеонаблюдения и прогнозы для более 4000 аэропортов (сводки METAR и TAF).

Имеющиеся станции представлены на карте желтыми и красными точками.

Чтобы увидеть название станции, наведите на нее мышь.

Затем щелкните, чтобы увидеть метеонаблюдения и метеопрогнозы.

Управление картой: чтобы увеличить масштаб, щелкните зеленые кнопки с черным крестиком; чтобы уменьшить масштаб, щелкните зеленую кнопку с тире; для просмотра соседних карт щелкайте зеленые стрелки.


METAR-TAF: